Time;durP1;ratioP1;P1;durP2;ratioP2;P2;SDS_P1;SDS_P2;PMS_P1;PMS_P2;Temp;Humidity;BMP_temperature;BMP_pressure;BME280_temperature;BME280_humidity;BME280_pressure;Samples;Min_cycle;Max_cycle;Signal;HPM_P1;HPM_P2
2021/05/29 00:00:49;;;;;;;2.90;1.60;;;24.30;45.80;;;;;;5026033;28;20466;-54
2021/05/29 00:03:15;;;;;;;2.60;1.60;;;24.20;45.80;;;;;;5020534;28;20029;-53
2021/05/29 00:05:42;;;;;;;2.65;1.60;;;24.20;45.80;;;;;;5026946;28;20049;-55
2021/05/29 00:08:08;;;;;;;2.55;1.55;;;24.20;45.80;;;;;;5019752;28;20057;-57
2021/05/29 00:10:35;;;;;;;2.97;1.50;;;24.20;45.80;;;;;;5022475;28;20440;-54
2021/05/29 00:13:01;;;;;;;2.50;1.60;;;24.10;45.80;;;;;;5028253;28;20116;-55
2021/05/29 00:15:30;;;;;;;2.58;1.58;;;24.10;45.80;;;;;;5026783;28;20097;-55
2021/05/29 00:17:56;;;;;;;3.00;1.85;;;24.10;45.80;;;;;;5028164;28;20049;-56
2021/05/29 00:20:22;;;;;;;2.92;1.50;;;24.10;45.80;;;;;;5026512;28;20121;-56
2021/05/29 00:22:47;;;;;;;2.88;1.70;;;24.10;45.80;;;;;;5026804;28;20487;-56
2021/05/29 00:25:14;;;;;;;2.42;1.67;;;24.10;45.90;;;;;;5021541;28;20072;-56
2021/05/29 00:27:40;;;;;;;2.70;1.63;;;24.10;45.90;;;;;;5015420;28;20491;-56
2021/05/29 00:30:06;;;;;;;3.75;1.60;;;24.10;45.80;;;;;;5020934;28;20033;-58
2021/05/29 00:32:32;;;;;;;3.17;1.85;;;24.00;45.80;;;;;;5026411;28;20113;-54
2021/05/29 00:34:58;;;;;;;3.13;1.77;;;24.00;45.80;;;;;;5017370;28;20179;-56
2021/05/29 00:37:23;;;;;;;2.63;1.50;;;24.00;45.80;;;;;;5023895;28;20037;-55
2021/05/29 00:39:49;;;;;;;2.60;1.42;;;24.00;45.80;;;;;;5022698;28;20129;-52
2021/05/29 00:42:15;;;;;;;2.58;1.60;;;24.00;45.80;;;;;;5013523;28;20099;-55
2021/05/29 00:44:48;;;;;;;2.97;1.73;;;24.00;45.80;;;;;;5023605;28;20030;-53
2021/05/29 00:47:18;;;;;;;2.60;1.50;;;24.00;46.40;;;;;;5019715;28;20500;-53
2021/05/29 00:49:43;;;;;;;2.55;1.60;;;23.90;45.80;;;;;;5027715;28;20040;-51
2021/05/29 00:52:09;;;;;;;2.58;1.52;;;23.90;45.80;;;;;;5022574;28;20034;-56
2021/05/29 00:54:34;;;;;;;2.50;1.52;;;23.90;45.80;;;;;;5015368;28;20107;-50
2021/05/29 00:57:00;;;;;;;2.20;1.48;;;23.90;45.80;;;;;;5019172;28;20738;-59
2021/05/29 00:59:26;;;;;;;2.83;1.50;;;23.90;45.80;;;;;;5025686;28;20464;-52
2021/05/29 01:01:52;;;;;;;3.03;1.70;;;23.90;45.80;;;;;;5026636;28;20118;-51
2021/05/29 01:04:17;;;;;;;2.55;1.70;;;23.90;45.90;;;;;;5027378;28;20057;-55
2021/05/29 01:06:43;;;;;;;2.42;1.42;;;23.90;46.40;;;;;;5023658;28;20883;-54
2021/05/29 01:09:09;;;;;;;2.65;1.60;;;23.80;45.80;;;;;;5014139;28;20022;-57
2021/05/29 01:11:34;;;;;;;2.75;1.70;;;23.90;45.80;;;;;;5021557;28;20093;-55
2021/05/29 01:14:01;;;;;;;2.88;1.63;;;23.80;45.80;;;;;;5025110;28;20405;-58
2021/05/29 01:19:02;;;;;;;2.28;1.40;;;23.80;45.80;;;;;;5027829;28;20021;-54
2021/05/29 01:21:28;;;;;;;2.28;1.50;;;23.80;45.80;;;;;;5025089;28;20044;-57
2021/05/29 01:23:54;;;;;;;2.00;1.33;;;23.80;45.80;;;;;;5019613;28;20030;-55
2021/05/29 01:26:20;;;;;;;1.90;1.27;;;23.80;45.80;;;;;;5021801;28;20022;-58
2021/05/29 01:28:46;;;;;;;2.42;1.40;;;23.70;45.80;;;;;;5015219;28;20048;-54
2021/05/29 01:31:13;;;;;;;3.85;1.27;;;23.70;45.80;;;;;;5012178;28;20059;-56
2021/05/29 01:33:39;;;;;;;2.00;1.30;;;23.70;45.80;;;;;;5023186;28;20033;-56
2021/05/29 01:36:11;;;;;;;2.95;1.67;;;23.70;45.90;;;;;;5025216;28;20029;-53
2021/05/29 01:38:39;;;;;;;2.17;1.27;;;23.70;45.90;;;;;;5009350;28;20034;-54
2021/05/29 01:41:10;;;;;;;2.53;1.30;;;23.70;45.90;;;;;;5024192;28;20099;-56
2021/05/29 01:43:37;;;;;;;2.10;1.30;;;23.70;45.90;;;;;;5024449;28;20040;-56
2021/05/29 01:46:03;;;;;;;2.70;1.38;;;23.70;45.90;;;;;;5007762;28;20544;-58
2021/05/29 01:48:34;;;;;;;2.33;1.20;;;23.70;45.90;;;;;;5023288;28;20061;-55
2021/05/29 01:51:00;;;;;;;2.03;1.30;;;23.60;45.90;;;;;;5018975;28;20486;-51
2021/05/29 01:53:26;;;;;;;2.53;1.40;;;23.60;46.00;;;;;;5023047;28;20018;-55
2021/05/29 01:55:52;;;;;;;2.28;1.52;;;23.60;46.00;;;;;;5018801;28;20036;-54
2021/05/29 01:58:19;;;;;;;2.60;1.50;;;23.60;46.00;;;;;;5016740;28;20380;-55
2021/05/29 02:00:45;;;;;;;2.17;1.30;;;23.50;45.90;;;;;;5025087;28;20302;-53
2021/05/29 02:03:11;;;;;;;2.58;1.40;;;23.60;46.00;;;;;;5025003;28;20103;-57
2021/05/29 02:05:37;;;;;;;2.17;1.42;;;23.60;46.00;;;;;;5025489;28;20391;-52
2021/05/29 02:08:05;;;;;;;2.50;1.48;;;23.60;46.00;;;;;;5020444;28;20227;-58
2021/05/29 02:10:32;;;;;;;2.40;1.33;;;23.50;46.00;;;;;;5024328;28;20152;-52
2021/05/29 02:13:00;;;;;;;2.08;1.30;;;23.50;46.00;;;;;;5026307;28;20542;-54
2021/05/29 02:15:28;;;;;;;2.22;1.52;;;23.50;46.00;;;;;;5024301;28;20083;-52
2021/05/29 02:17:55;;;;;;;2.40;1.40;;;23.50;46.00;;;;;;5026105;28;20355;-53
2021/05/29 02:20:39;;;;;;;2.30;1.40;;;23.50;46.00;;;;;;5015014;28;20380;-57
2021/05/29 02:23:06;;;;;;;2.70;1.40;;;23.50;46.00;;;;;;5017588;28;20108;-55
2021/05/29 02:25:31;;;;;;;2.13;1.30;;;23.40;46.00;;;;;;5022638;28;20041;-52
2021/05/29 02:27:57;;;;;;;2.00;1.30;;;23.40;46.00;;;;;;5024497;28;20655;-55
2021/05/29 02:30:23;;;;;;;2.67;1.30;;;23.40;46.00;;;;;;5023852;28;20053;-58
2021/05/29 02:32:50;;;;;;;1.63;1.10;;;23.40;46.00;;;;;;5026485;28;20042;-55
2021/05/29 02:35:16;;;;;;;1.98;1.35;;;23.40;46.00;;;;;;5023611;28;20499;-54
2021/05/29 02:37:42;;;;;;;2.13;1.30;;;23.40;46.00;;;;;;5020090;28;20109;-54
2021/05/29 02:40:08;;;;;;;2.63;1.60;;;23.40;46.10;;;;;;5024505;28;20488;-54
2021/05/29 02:42:34;;;;;;;2.40;1.35;;;23.40;46.10;;;;;;5025094;28;20033;-53
2021/05/29 02:44:59;;;;;;;2.40;1.30;;;23.40;46.00;;;;;;5021996;28;20409;-53
2021/05/29 02:47:25;;;;;;;2.75;1.30;;;23.30;46.00;;;;;;5021535;28;20030;-54
2021/05/29 02:49:51;;;;;;;2.20;1.40;;;23.30;46.00;;;;;;5021766;28;20040;-53
2021/05/29 02:52:17;;;;;;;2.90;1.20;;;23.30;46.00;;;;;;5025586;28;20032;-55
2021/05/29 02:54:43;;;;;;;1.70;1.13;;;23.30;46.10;;;;;;5023589;28;20427;-60
2021/05/29 02:57:12;;;;;;;1.88;1.20;;;23.30;46.00;;;;;;5021464;28;20045;-57
2021/05/29 02:59:39;;;;;;;1.85;1.13;;;23.30;46.10;;;;;;5025449;28;20712;-57
2021/05/29 03:02:07;;;;;;;2.58;1.23;;;23.30;46.10;;;;;;5018172;28;20041;-54
2021/05/29 03:04:34;;;;;;;1.73;1.13;;;23.30;46.10;;;;;;5022932;28;20080;-56
2021/05/29 03:06:59;;;;;;;2.40;1.40;;;23.30;46.10;;;;;;5027340;28;20139;-57
2021/05/29 03:09:26;;;;;;;2.35;1.30;;;23.30;46.10;;;;;;5027513;28;20601;-54
2021/05/29 03:11:52;;;;;;;2.38;1.10;;;23.30;46.10;;;;;;5029055;28;20063;-52
2021/05/29 03:14:18;;;;;;;1.75;1.05;;;23.20;46.10;;;;;;5029415;28;20056;-51
2021/05/29 03:16:43;;;;;;;2.15;1.40;;;23.20;46.10;;;;;;5015770;28;20049;-58
2021/05/29 03:19:09;;;;;;;1.90;1.10;;;23.20;46.10;;;;;;5025147;28;20512;-56
2021/05/29 03:21:35;;;;;;;2.28;1.35;;;23.20;46.10;;;;;;5026684;28;20053;-55
2021/05/29 03:24:00;;;;;;;2.08;1.20;;;23.20;46.10;;;;;;5028050;28;20034;-57
2021/05/29 03:26:26;;;;;;;1.75;1.20;;;23.20;46.10;;;;;;5028597;28;20104;-56
2021/05/29 03:28:52;;;;;;;1.80;1.23;;;23.20;46.10;;;;;;5027041;28;20034;-54
2021/05/29 03:31:18;;;;;;;1.85;1.20;;;23.20;46.10;;;;;;5028970;28;20037;-56
2021/05/29 03:33:44;;;;;;;2.20;1.30;;;23.20;46.10;;;;;;5029510;28;20029;-55
2021/05/29 03:36:10;;;;;;;1.98;1.10;;;23.20;46.10;;;;;;5028583;28;20044;-56
2021/05/29 03:38:36;;;;;;;2.22;1.30;;;23.20;46.10;;;;;;5023585;28;20136;-55
2021/05/29 03:41:01;;;;;;;1.67;1.20;;;23.10;46.10;;;;;;5025345;28;20025;-56
2021/05/29 03:43:27;;;;;;;2.17;1.25;;;23.10;46.10;;;;;;5029639;28;20029;-52
2021/05/29 03:45:52;;;;;;;1.80;1.13;;;23.10;46.10;;;;;;5028785;28;20021;-58
2021/05/29 03:48:18;;;;;;;2.35;1.17;;;23.10;46.10;;;;;;5022575;28;20527;-55
2021/05/29 03:50:44;;;;;;;1.63;1.10;;;23.10;46.10;;;;;;5026600;28;20029;-59
2021/05/29 03:53:09;;;;;;;1.90;1.20;;;23.10;46.10;;;;;;5024474;28;20120;-54
2021/05/29 03:55:36;;;;;;;1.75;1.10;;;23.10;46.10;;;;;;5021914;28;20036;-54
2021/05/29 03:58:02;;;;;;;2.28;1.20;;;23.10;46.20;;;;;;5025831;28;20033;-56
2021/05/29 04:00:29;;;;;;;1.83;1.27;;;23.10;46.20;;;;;;5016681;28;20088;-56
2021/05/29 04:02:55;;;;;;;1.60;1.10;;;23.10;46.20;;;;;;5029207;28;20582;-57
2021/05/29 04:05:22;;;;;;;2.45;1.20;;;23.00;46.10;;;;;;5020716;28;20580;-54
2021/05/29 04:07:48;;;;;;;2.00;1.20;;;23.10;46.70;;;;;;5026139;28;20040;-52
2021/05/29 04:10:17;;;;;;;1.73;1.10;;;23.00;46.20;;;;;;5022343;28;20185;-58
2021/05/29 04:12:43;;;;;;;1.80;1.17;;;23.00;46.10;;;;;;5024088;28;20043;-56
2021/05/29 04:15:10;;;;;;;1.90;1.10;;;23.00;46.20;;;;;;5014893;28;20026;-56
2021/05/29 04:17:35;;;;;;;1.70;1.10;;;23.00;46.20;;;;;;5024270;28;20053;-54
2021/05/29 04:20:01;;;;;;;1.75;1.23;;;23.00;46.20;;;;;;5026004;28;20049;-53
2021/05/29 04:22:27;;;;;;;1.77;1.20;;;23.00;46.20;;;;;;5025917;28;20029;-51
2021/05/29 04:24:53;;;;;;;1.42;1.10;;;23.00;46.20;;;;;;5025901;28;20030;-55
2021/05/29 04:27:19;;;;;;;2.10;1.10;;;23.00;46.20;;;;;;5027058;28;20172;-51
2021/05/29 04:29:46;;;;;;;2.22;1.10;;;22.90;46.20;;;;;;5027297;28;20036;-54
2021/05/29 04:32:12;;;;;;;1.50;1.10;;;23.00;46.20;;;;;;5025362;28;20104;-51
2021/05/29 04:34:37;;;;;;;1.65;1.00;;;22.90;46.20;;;;;;5013569;28;20441;-56
2021/05/29 04:37:04;;;;;;;2.17;1.30;;;23.00;46.20;;;;;;5026888;28;21002;-57
2021/05/29 04:39:30;;;;;;;2.00;1.20;;;22.90;46.20;;;;;;5024662;28;20037;-54
2021/05/29 04:41:56;;;;;;;1.70;1.00;;;23.00;46.20;;;;;;5027872;28;20247;-54
2021/05/29 04:44:21;;;;;;;1.52;0.90;;;22.90;46.20;;;;;;5027391;28;20441;-51
2021/05/29 04:46:51;;;;;;;1.42;0.98;;;22.90;46.20;;;;;;5023757;28;20030;-59
2021/05/29 04:49:20;;;;;;;1.63;1.00;;;22.90;46.20;;;;;;5027128;28;20037;-56
2021/05/29 04:51:46;;;;;;;1.90;1.20;;;22.90;46.20;;;;;;5027048;28;20029;-55
2021/05/29 04:54:13;;;;;;;2.53;1.13;;;22.90;46.20;;;;;;5026559;28;20045;-55
2021/05/29 04:56:38;;;;;;;1.70;1.13;;;22.90;46.20;;;;;;5027163;28;20136;-57
2021/05/29 04:59:05;;;;;;;1.73;0.95;;;22.90;46.20;;;;;;5024383;28;20037;-54
2021/05/29 05:01:31;;;;;;;2.25;1.20;;;22.90;46.20;;;;;;5023603;28;20038;-49
2021/05/29 05:04:01;;;;;;;1.85;1.17;;;22.90;46.30;;;;;;5018085;28;20026;-58
2021/05/29 05:06:28;;;;;;;2.30;1.13;;;22.90;46.30;;;;;;5026015;28;20040;-55
2021/05/29 05:08:54;;;;;;;1.27;1.00;;;22.80;46.20;;;;;;5027470;28;20112;-59
2021/05/29 05:11:20;;;;;;;2.40;1.30;;;22.80;46.20;;;;;;5024680;28;20029;-55
2021/05/29 05:13:47;;;;;;;2.35;1.10;;;22.80;46.20;;;;;;5025410;28;20033;-57
2021/05/29 05:16:14;;;;;;;2.05;1.10;;;22.80;46.20;;;;;;5021013;28;20360;-56
2021/05/29 05:18:40;;;;;;;1.77;1.00;;;22.80;46.20;;;;;;5026500;28;20602;-54
2021/05/29 05:21:06;;;;;;;1.63;1.00;;;22.80;46.30;;;;;;5026553;28;20057;-54
2021/05/29 05:23:31;;;;;;;1.90;1.10;;;22.80;46.20;;;;;;5026394;28;20551;-54
2021/05/29 05:25:57;;;;;;;1.30;0.90;;;22.80;46.20;;;;;;5024716;28;20065;-54
2021/05/29 05:28:26;;;;;;;1.83;1.00;;;22.80;46.20;;;;;;5025067;28;20038;-56
2021/05/29 05:31:03;;;;;;;1.75;1.10;;;22.80;46.30;;;;;;5016244;28;20049;-55
2021/05/29 05:33:30;;;;;;;1.48;1.00;;;22.80;46.30;;;;;;5027268;28;20053;-56
2021/05/29 05:35:56;;;;;;;2.50;0.95;;;22.80;46.80;;;;;;5023826;28;20038;-53
2021/05/29 05:38:23;;;;;;;1.75;1.23;;;22.70;46.20;;;;;;5026487;28;20021;-57
2021/05/29 05:40:49;;;;;;;1.88;1.10;;;22.70;46.20;;;;;;5024148;28;20038;-56
2021/05/29 05:43:15;;;;;;;3.05;1.10;;;22.80;46.30;;;;;;5025371;28;20040;-59
2021/05/29 05:45:41;;;;;;;1.67;1.10;;;22.80;46.30;;;;;;5025595;28;20082;-57
2021/05/29 05:48:07;;;;;;;1.20;0.93;;;22.80;46.30;;;;;;5017940;28;20471;-50
2021/05/29 05:50:33;;;;;;;1.60;1.00;;;22.70;46.30;;;;;;5026556;28;20051;-55
2021/05/29 05:52:59;;;;;;;1.65;1.00;;;22.70;46.30;;;;;;5026094;28;20037;-59
2021/05/29 05:55:24;;;;;;;1.48;1.10;;;22.70;46.30;;;;;;5024458;28;20037;-57
2021/05/29 05:57:50;;;;;;;1.45;1.02;;;22.70;46.30;;;;;;5026021;28;20045;-54
2021/05/29 06:00:20;;;;;;;1.23;0.90;;;22.70;46.30;;;;;;5026285;28;20453;-53
2021/05/29 06:02:46;;;;;;;1.65;1.00;;;22.70;46.30;;;;;;5024289;28;20375;-53
2021/05/29 06:05:15;;;;;;;1.73;1.00;;;22.70;46.30;;;;;;5024261;28;20036;-59
2021/05/29 06:07:42;;;;;;;1.50;1.00;;;22.70;46.30;;;;;;5024754;28;20163;-54
2021/05/29 06:10:09;;;;;;;1.85;1.10;;;22.70;46.30;;;;;;5024226;28;20699;-55
2021/05/29 06:12:38;;;;;;;1.30;1.00;;;22.70;46.40;;;;;;5024167;28;20036;-52
2021/05/29 06:20:21;;;;;;;1.50;0.90;;;22.70;46.40;;;;;;5027221;28;20033;-57
2021/05/29 06:22:47;;;;;;;1.55;1.00;;;22.70;46.40;;;;;;5023838;28;20041;-56
2021/05/29 06:25:15;;;;;;;1.92;1.10;;;22.60;46.30;;;;;;5023666;28;20014;-58
2021/05/29 06:27:40;;;;;;;1.98;1.10;;;22.70;46.40;;;;;;5026763;28;20061;-55
2021/05/29 06:30:08;;;;;;;1.50;1.05;;;22.70;46.40;;;;;;5025437;28;20436;-53
2021/05/29 06:32:35;;;;;;;1.40;1.00;;;22.70;46.40;;;;;;5021199;28;20132;-52
2021/05/29 06:35:01;;;;;;;2.28;1.20;;;22.70;46.40;;;;;;5026793;28;20029;-51
2021/05/29 06:37:26;;;;;;;1.55;1.08;;;22.70;46.40;;;;;;5022396;28;20033;-55
2021/05/29 06:39:52;;;;;;;1.70;1.00;;;22.70;46.40;;;;;;5020434;28;20492;-58
2021/05/29 06:42:18;;;;;;;1.77;1.08;;;22.60;46.30;;;;;;5024054;28;20108;-56
2021/05/29 06:44:43;;;;;;;1.58;1.02;;;22.60;46.40;;;;;;5027022;28;20391;-55
2021/05/29 06:47:09;;;;;;;1.67;1.00;;;22.70;46.40;;;;;;5026520;28;20117;-54
2021/05/29 06:49:36;;;;;;;1.55;0.93;;;22.60;46.40;;;;;;5023789;28;20112;-52
2021/05/29 06:52:14;;;;;;;1.83;1.10;;;22.60;46.40;;;;;;5024596;28;20100;-57
2021/05/29 06:54:56;;;;;;;2.72;1.30;;;22.60;46.40;;;;;;5023280;28;20183;-52
2021/05/29 07:00:08;;;;;;;1.95;1.10;;;22.60;46.40;;;;;;5026070;28;20037;-55
2021/05/29 07:02:34;;;;;;;1.38;1.02;;;22.60;46.40;;;;;;5024871;28;20706;-54
2021/05/29 07:05:00;;;;;;;1.90;1.15;;;22.60;46.40;;;;;;5026266;28;20029;-56
2021/05/29 07:07:26;;;;;;;1.40;1.00;;;22.60;46.40;;;;;;5019571;28;20041;-52
2021/05/29 07:09:51;;;;;;;1.52;1.00;;;22.60;46.40;;;;;;5012010;28;20357;-57
2021/05/29 07:12:17;;;;;;;1.33;0.90;;;22.60;46.40;;;;;;5025422;28;20519;-56
2021/05/29 07:14:43;;;;;;;1.98;1.20;;;22.60;46.50;;;;;;5025931;28;20364;-57
2021/05/29 07:17:08;;;;;;;1.17;0.93;;;22.60;46.40;;;;;;5025999;28;20041;-56
2021/05/29 07:19:35;;;;;;;1.55;1.00;;;22.60;47.00;;;;;;5015170;28;20116;-54
2021/05/29 07:22:01;;;;;;;2.20;1.10;;;22.60;46.50;;;;;;5021692;28;20057;-52
2021/05/29 07:24:27;;;;;;;1.20;0.80;;;22.60;46.40;;;;;;5025529;28;20022;-53
2021/05/29 07:26:53;;;;;;;1.80;1.10;;;22.60;46.40;;;;;;5026285;28;20037;-58
2021/05/29 07:29:19;;;;;;;1.48;0.95;;;22.60;46.50;;;;;;5045151;28;20573;-52
2021/05/29 07:31:46;;;;;;;1.65;1.05;;;22.60;46.50;;;;;;5024091;28;20987;-57
2021/05/29 07:34:12;;;;;;;2.92;1.00;;;22.60;46.50;;;;;;5024173;28;20464;-49
2021/05/29 07:36:39;;;;;;;1.20;0.85;;;22.60;46.50;;;;;;5023172;28;20102;-56
2021/05/29 07:39:05;;;;;;;1.65;0.90;;;22.60;46.50;;;;;;5025297;28;20025;-56
2021/05/29 07:41:32;;;;;;;1.88;0.95;;;22.60;46.50;;;;;;5022836;28;20075;-52
2021/05/29 07:43:58;;;;;;;1.58;0.90;;;22.60;46.60;;;;;;5025634;28;20217;-51
2021/05/29 07:46:24;;;;;;;1.10;0.88;;;22.60;46.60;;;;;;5029623;28;20041;-56
2021/05/29 07:48:51;;;;;;;1.60;0.90;;;22.60;46.60;;;;;;5027695;28;20117;-55
2021/05/29 07:51:17;;;;;;;1.75;1.00;;;22.60;46.60;;;;;;5046641;28;20021;-56
2021/05/29 07:53:43;;;;;;;1.23;0.85;;;22.60;46.60;;;;;;5049456;28;20029;-56
2021/05/29 07:56:14;;;;;;;1.80;1.00;;;22.60;46.60;;;;;;5025226;28;20490;-54
2021/05/29 07:58:41;;;;;;;1.30;0.80;;;22.60;46.60;;;;;;5028760;28;20065;-53
2021/05/29 08:01:08;;;;;;;1.70;0.98;;;22.60;46.60;;;;;;5016537;28;20121;-54
2021/05/29 08:03:34;;;;;;;1.23;0.80;;;22.60;46.60;;;;;;5021655;28;20129;-57
2021/05/29 08:06:03;;;;;;;1.42;0.80;;;22.60;46.50;;;;;;5027771;28;20025;-53
2021/05/29 08:08:29;;;;;;;1.50;1.10;;;22.60;46.60;;;;;;5013272;28;20231;-55
2021/05/29 08:10:56;;;;;;;1.60;0.90;;;22.60;46.50;;;;;;5017891;28;20125;-57
2021/05/29 08:13:22;;;;;;;1.70;1.00;;;22.60;46.50;;;;;;5026404;28;20417;-53
2021/05/29 08:15:48;;;;;;;1.80;1.10;;;22.60;46.50;;;;;;5019463;28;20103;-56
2021/05/29 08:18:17;;;;;;;1.45;1.00;;;22.60;45.20;;;;;;5028298;28;20029;-60
2021/05/29 08:20:47;;;;;;;1.50;1.00;;;22.60;43.90;;;;;;5028419;28;20030;-56
2021/05/29 08:23:13;;;;;;;1.40;0.93;;;22.50;43.10;;;;;;5027488;28;20044;-58
2021/05/29 08:25:39;;;;;;;2.08;1.20;;;22.50;42.40;;;;;;5022894;28;20037;-53
2021/05/29 08:28:05;;;;;;;1.92;1.00;;;22.50;41.90;;;;;;5019786;28;20476;-54
2021/05/29 08:30:31;;;;;;;1.33;0.82;;;22.50;41.10;;;;;;5021782;28;20138;-53
2021/05/29 08:32:57;;;;;;;1.55;0.90;;;22.40;40.70;;;;;;5026713;28;20088;-58
2021/05/29 08:35:23;;;;;;;2.05;0.90;;;22.40;40.80;;;;;;5025298;28;20499;-54
2021/05/29 08:37:49;;;;;;;2.15;0.85;;;22.40;40.90;;;;;;5026696;28;20029;-49
2021/05/29 08:40:16;;;;;;;0.77;0.70;;;22.40;41.10;;;;;;5026195;28;20121;-56
2021/05/29 08:42:43;;;;;;;1.10;0.90;;;22.40;41.30;;;;;;5027195;28;20057;-52
2021/05/29 08:45:10;;;;;;;1.30;0.77;;;22.40;41.40;;;;;;5026587;28;20072;-53
2021/05/29 08:47:36;;;;;;;1.13;0.88;;;22.40;41.50;;;;;;5025426;28;20510;-54
2021/05/29 08:50:02;;;;;;;1.20;0.70;;;22.40;41.70;;;;;;5026640;28;20551;-56
2021/05/29 08:52:29;;;;;;;3.65;1.00;;;22.40;41.80;;;;;;5024712;28;20072;-53
2021/05/29 08:54:56;;;;;;;1.95;0.82;;;22.40;41.80;;;;;;5012535;28;20417;-57
2021/05/29 08:57:23;;;;;;;1.10;0.80;;;22.40;42.00;;;;;;5025031;28;20041;-55
2021/05/29 08:59:48;;;;;;;1.35;0.90;;;22.40;42.10;;;;;;5026023;28;20044;-56
2021/05/29 09:02:14;;;;;;;2.28;0.85;;;22.40;42.20;;;;;;5025399;28;20037;-56
2021/05/29 09:05:09;;;;;;;1.35;0.80;;;22.40;42.10;;;;;;5025358;28;20080;-56
2021/05/29 09:07:34;;;;;;;1.60;0.80;;;22.40;42.10;;;;;;5021587;28;20083;-58
2021/05/29 09:10:22;;;;;;;1.27;0.73;;;22.40;42.30;;;;;;5024877;28;20041;-51
2021/05/29 09:13:09;;;;;;;1.50;0.82;;;22.40;42.40;;;;;;5024540;28;20393;-52
2021/05/29 09:15:48;;;;;;;1.95;1.10;;;22.40;42.50;;;;;;5027940;28;20087;-55
2021/05/29 09:18:23;;;;;;;1.35;0.88;;;22.50;42.60;;;;;;5025863;28;20096;-56
2021/05/29 09:20:48;;;;;;;1.40;0.80;;;22.50;42.60;;;;;;5026576;28;20450;-49
2021/05/29 09:23:14;;;;;;;1.65;0.90;;;22.50;42.70;;;;;;5025971;28;20052;-52
2021/05/29 09:25:53;;;;;;;1.88;0.80;;;22.50;42.60;;;;;;5022126;28;20053;-53
2021/05/29 09:28:24;;;;;;;1.77;0.82;;;22.40;42.40;;;;;;5028895;28;20040;-53
2021/05/29 09:30:52;;;;;;;1.27;0.80;;;22.40;42.40;;;;;;5027322;28;20093;-57
2021/05/29 09:33:22;;;;;;;1.05;0.80;;;22.50;42.40;;;;;;5018317;28;20025;-51
2021/05/29 09:36:06;;;;;;;2.50;0.80;;;22.40;42.30;;;;;;5028193;28;20031;-56
2021/05/29 09:38:43;;;;;;;1.13;0.70;;;22.40;42.30;;;;;;5028084;28;20819;-52
2021/05/29 09:41:20;;;;;;;1.90;0.98;;;22.40;42.30;;;;;;5015747;28;20044;-53
2021/05/29 09:44:04;;;;;;;2.08;0.70;;;22.40;42.20;;;;;;5025798;28;20075;-59
2021/05/29 09:46:49;;;;;;;2.15;0.70;;;22.40;42.20;;;;;;5023328;28;20065;-51
2021/05/29 09:49:14;;;;;;;1.23;0.88;;;22.50;42.20;;;;;;5028740;28;20194;-54
2021/05/29 09:51:40;;;;;;;1.13;0.80;;;22.40;42.10;;;;;;5028094;28;20136;-53
2021/05/29 09:54:11;;;;;;;0.88;0.77;;;22.40;42.10;;;;;;5023575;28;20029;-55
2021/05/29 09:56:43;;;;;;;1.77;0.70;;;22.40;42.00;;;;;;5026624;28;20021;-55
2021/05/29 09:59:12;;;;;;;0.77;0.70;;;22.40;42.00;;;;;;5023768;28;20034;-53
2021/05/29 10:01:46;;;;;;;1.38;0.77;;;22.40;42.10;;;;;;5020810;28;20183;-56
2021/05/29 10:04:15;;;;;;;1.35;0.80;;;22.40;42.30;;;;;;5020532;28;20452;-51
2021/05/29 10:06:52;;;;;;;1.98;0.75;;;22.40;42.30;;;;;;5026121;28;20029;-53
2021/05/29 10:09:18;;;;;;;1.40;0.90;;;22.40;42.10;;;;;;5026646;28;20044;-55
2021/05/29 10:11:43;;;;;;;2.45;1.00;;;22.40;42.00;;;;;;5024210;28;20375;-52
2021/05/29 10:14:09;;;;;;;1.27;0.70;;;22.40;42.00;;;;;;5041201;28;20167;-51
2021/05/29 10:16:38;;;;;;;2.30;0.70;;;22.40;42.10;;;;;;5025867;28;20075;-52
2021/05/29 10:19:06;;;;;;;1.50;0.80;;;22.40;42.20;;;;;;5024811;28;20083;-49
2021/05/29 10:21:32;;;;;;;1.27;0.77;;;22.40;42.30;;;;;;5021901;28;20113;-50
2021/05/29 10:24:00;;;;;;;1.95;0.82;;;22.40;42.40;;;;;;5022890;28;20512;-49
2021/05/29 10:26:28;;;;;;;1.13;0.75;;;22.40;42.50;;;;;;5023235;28;20041;-52
2021/05/29 10:28:55;;;;;;;0.82;0.70;;;22.40;42.60;;;;;;5025505;28;20056;-53
2021/05/29 10:31:22;;;;;;;1.35;1.00;;;22.40;42.80;;;;;;5026949;28;20044;-50
2021/05/29 10:33:48;;;;;;;1.40;0.80;;;22.50;42.90;;;;;;5024487;28;20053;-53
2021/05/29 10:36:44;;;;;;;2.25;0.80;;;22.50;43.10;;;;;;5015830;28;20065;-61
2021/05/29 10:39:22;;;;;;;2.47;0.70;;;22.50;43.30;;;;;;5017038;28;20096;-60
2021/05/29 10:41:58;;;;;;;1.10;0.70;;;22.50;43.40;;;;;;5020203;28;20053;-61
2021/05/29 10:44:35;;;;;;;1.17;0.80;;;22.60;43.40;;;;;;5028887;28;20040;-60
2021/05/29 10:47:12;;;;;;;1.27;0.77;;;22.60;43.50;;;;;;5023678;28;20090;-61
2021/05/29 10:49:56;;;;;;;0.90;0.70;;;22.60;43.50;;;;;;5024804;28;20029;-60
2021/05/29 10:52:31;;;;;;;0.82;0.70;;;22.60;43.60;;;;;;5024524;28;20112;-60
2021/05/29 10:55:08;;;;;;;2.50;0.70;;;22.70;43.70;;;;;;5027563;28;20039;-60
2021/05/29 10:57:56;;;;;;;1.33;0.80;;;22.60;43.70;;;;;;5009153;28;20117;-60
2021/05/29 11:00:41;;;;;;;4.32;1.20;;;22.70;43.80;;;;;;5018794;28;20057;-61
2021/05/29 11:03:25;;;;;;;1.52;0.70;;;22.70;43.90;;;;;;5020895;28;20090;-61
2021/05/29 11:05:59;;;;;;;1.38;0.70;;;22.70;44.00;;;;;;5021806;28;20116;-60
2021/05/29 11:08:54;;;;;;;1.95;0.80;;;22.70;44.00;;;;;;5017962;28;20026;-60
2021/05/29 11:11:38;;;;;;;0.80;0.70;;;22.70;44.00;;;;;;5022002;28;20053;-61
2021/05/29 11:14:11;;;;;;;1.17;0.60;;;22.80;44.10;;;;;;5017100;28;20022;-59
2021/05/29 11:16:49;;;;;;;1.10;0.60;;;22.80;44.10;;;;;;5023112;28;20022;-61
2021/05/29 11:19:17;;;;;;;1.10;0.70;;;22.80;44.10;;;;;;5022386;28;20044;-60
2021/05/29 11:22:03;;;;;;;0.93;0.70;;;22.80;44.10;;;;;;5022054;28;20124;-61
2021/05/29 11:24:43;;;;;;;1.25;0.75;;;22.80;44.10;;;;;;5032941;28;20026;-62
2021/05/29 11:27:33;;;;;;;0.95;0.63;;;22.80;44.10;;;;;;5024278;28;20025;-61
2021/05/29 11:30:12;;;;;;;1.15;0.80;;;22.80;44.10;;;;;;5026700;28;20125;-61
2021/05/29 11:35:36;;;;;;;0.93;0.60;;;22.80;44.10;;;;;;5019401;28;20268;-60
2021/05/29 11:38:11;;;;;;;1.42;0.65;;;22.80;44.10;;;;;;5015246;28;20029;-60
2021/05/29 11:40:47;;;;;;;1.10;0.70;;;22.80;44.10;;;;;;5014787;28;20037;-62
2021/05/29 11:43:15;;;;;;;1.58;0.70;;;22.80;44.10;;;;;;5013163;28;20526;-61
2021/05/29 11:45:41;;;;;;;1.92;0.70;;;22.80;44.10;;;;;;5027060;28;20411;-61
2021/05/29 11:48:08;;;;;;;0.65;0.60;;;22.80;44.10;;;;;;5027201;28;20051;-60
2021/05/29 11:50:40;;;;;;;1.08;0.60;;;22.90;44.20;;;;;;5028148;28;20578;-60
2021/05/29 11:53:11;;;;;;;1.05;0.70;;;22.90;44.20;;;;;;5027175;28;20033;-61
2021/05/29 11:55:54;;;;;;;0.88;0.60;;;22.90;44.20;;;;;;5026445;28;20033;-60
2021/05/29 11:58:20;;;;;;;1.13;0.70;;;22.90;44.20;;;;;;5026423;28;20030;-61
2021/05/29 12:01:00;;;;;;;0.82;0.65;;;22.90;44.10;;;;;;5022567;28;20117;-60
2021/05/29 12:03:36;;;;;;;0.98;0.70;;;22.90;44.60;;;;;;5018468;28;20030;-62
2021/05/29 12:06:02;;;;;;;0.82;0.60;;;22.90;44.10;;;;;;5007758;28;20026;-61
2021/05/29 12:08:27;;;;;;;0.77;0.60;;;22.90;44.10;;;;;;5021001;28;20170;-62
2021/05/29 12:10:54;;;;;;;0.80;0.50;;;22.90;44.10;;;;;;5008502;28;20521;-61
2021/05/29 12:13:30;;;;;;;0.77;0.60;;;22.90;44.10;;;;;;5020163;28;20033;-61
2021/05/29 12:16:02;;;;;;;1.95;0.70;;;22.90;44.10;;;;;;5012988;28;20044;-61
2021/05/29 12:18:38;;;;;;;1.23;0.70;;;23.00;44.20;;;;;;5025208;28;20480;-62
2021/05/29 12:21:06;;;;;;;0.73;0.60;;;23.00;44.20;;;;;;5024805;28;20025;-61
2021/05/29 12:23:50;;;;;;;2.20;0.70;;;23.00;44.20;;;;;;5020998;28;20107;-62
2021/05/29 12:26:17;;;;;;;1.55;0.60;;;23.00;44.20;;;;;;5022647;28;20108;-62
2021/05/29 12:28:43;;;;;;;1.05;0.70;;;23.00;44.20;;;;;;5020918;28;20833;-62
2021/05/29 12:31:09;;;;;;;1.40;0.70;;;23.00;44.20;;;;;;5031194;28;20067;-62
2021/05/29 12:33:34;;;;;;;0.98;0.63;;;23.00;44.10;;;;;;5043495;28;20039;-62
2021/05/29 12:36:07;;;;;;;1.58;0.70;;;23.10;44.10;;;;;;5024232;28;20665;-62
2021/05/29 12:38:33;;;;;;;0.82;0.60;;;23.10;44.10;;;;;;5024048;28;20052;-63
2021/05/29 12:41:07;;;;;;;0.77;0.65;;;23.10;44.10;;;;;;5019078;28;20417;-63
2021/05/29 12:43:33;;;;;;;0.75;0.60;;;23.10;44.00;;;;;;5026774;28;20029;-62
2021/05/29 12:45:59;;;;;;;1.42;0.90;;;23.20;44.00;;;;;;5022456;28;20035;-63
2021/05/29 12:48:24;;;;;;;1.33;0.82;;;23.20;44.00;;;;;;5021459;28;20037;-61
2021/05/29 12:53:35;;;;;;;1.90;0.90;;;23.20;43.90;;;;;;5024690;28;20025;-62
2021/05/29 12:56:12;;;;;;;1.65;0.60;;;23.30;43.90;;;;;;5017413;28;20180;-63
2021/05/29 12:58:38;;;;;;;1.15;0.68;;;23.30;43.80;;;;;;5026136;28;20124;-60
2021/05/29 13:09:30;;;;;;;1.15;0.70;;;23.30;43.60;;;;;;5026281;28;20147;-61
2021/05/29 13:11:56;;;;;;;1.88;0.80;;;23.40;43.60;;;;;;5021863;28;20045;-61
2021/05/29 13:14:29;;;;;;;1.20;0.77;;;23.40;43.60;;;;;;5024457;28;20040;-61
2021/05/29 13:17:03;;;;;;;1.63;0.57;;;23.40;43.60;;;;;;5019793;28;20472;-62
2021/05/29 13:19:42;;;;;;;1.90;0.70;;;23.40;43.60;;;;;;5021012;28;20415;-61